Time;durP1;ratioP1;P1;durP2;ratioP2;P2;SDS_P1;SDS_P2;PMS_P1;PMS_P2;Temp;Humidity;BMP_temperature;BMP_pressure;BME280_temperature;BME280_humidity;BME280_pressure;Samples;Min_cycle;Max_cycle;Signal;HPM_P1;HPM_P2
2023/05/01 00:02:07;;;;;;;6.05;1.75;;;;;;;;;;5032648;28;20100;-72
2023/05/01 00:04:32;;;;;;;4.30;1.47;;;;;;;;;;5033310;28;20079;-72
2023/05/01 00:06:58;;;;;;;6.45;1.50;;;;;;;;;;5032672;28;20276;-72
2023/05/01 00:09:25;;;;;;;2.73;1.30;;;;;;;;;;5033606;28;20032;-71
2023/05/01 00:11:50;;;;;;;2.83;1.70;;;;;;;;;;5032929;28;20044;-72
2023/05/01 00:14:16;;;;;;;4.67;1.73;;;;;;;;;;5032735;28;20021;-72
2023/05/01 00:16:41;;;;;;;5.75;1.80;;;;;;;;;;5031000;28;20306;-72
2023/05/01 00:19:07;;;;;;;7.30;2.10;;;;;;;;;;5032036;28;20509;-72
2023/05/01 00:21:32;;;;;;;5.43;1.88;;;;;;;;;;5032695;28;20093;-72
2023/05/01 00:23:57;;;;;;;6.70;1.67;;;;;;;;;;5032169;28;20399;-72
2023/05/01 00:26:25;;;;;;;6.40;2.00;;;;;;;;;;5032844;28;20132;-71
2023/05/01 00:28:51;;;;;;;4.35;2.00;;;;;;;;;;5029306;28;20268;-72
2023/05/01 00:31:17;;;;;;;3.03;1.77;;;;;;;;;;5030356;28;20056;-72
2023/05/01 00:33:42;;;;;;;2.72;1.55;;;;;;;;;;5031818;28;20280;-71
2023/05/01 00:36:08;;;;;;;3.83;1.60;;;;;;;;;;5032786;28;20020;-72
2023/05/01 00:38:34;;;;;;;3.72;1.65;;;;;;;;;;5032013;28;20272;-71
2023/05/01 00:40:59;;;;;;;5.70;1.70;;;;;;;;;;5032327;28;20040;-72
2023/05/01 00:43:24;;;;;;;4.10;2.37;;;;;;;;;;5031658;28;20248;-72
2023/05/01 00:45:49;;;;;;;2.78;1.70;;;;;;;;;;5034306;28;20272;-72
2023/05/01 00:48:15;;;;;;;8.63;2.10;;;;;;;;;;5031613;28;20024;-72
2023/05/01 00:50:40;;;;;;;7.78;2.40;;;;;;;;;;5032365;28;20525;-71
2023/05/01 00:53:05;;;;;;;7.70;2.08;;;;;;;;;;5031437;28;20041;-72
2023/05/01 00:55:32;;;;;;;3.33;1.60;;;;;;;;;;5027852;28;20025;-72
2023/05/01 00:57:57;;;;;;;3.05;1.75;;;;;;;;;;5030993;28;20268;-71
2023/05/01 01:00:23;;;;;;;11.27;1.90;;;;;;;;;;5031900;28;20155;-71
2023/05/01 01:02:48;;;;;;;4.60;1.73;;;;;;;;;;5031453;28;20374;-71
2023/05/01 01:05:14;;;;;;;3.95;1.67;;;;;;;;;;5031550;28;20466;-71
2023/05/01 01:07:53;;;;;;;3.75;1.70;;;;;;;;;;5032312;28;20042;-71
2023/05/01 01:10:26;;;;;;;6.43;1.90;;;;;;;;;;5029370;28;20025;-71
2023/05/01 01:12:51;;;;;;;4.22;2.03;;;;;;;;;;5028604;28;20021;-72
2023/05/01 01:15:26;;;;;;;5.37;1.87;;;;;;;;;;5029705;28;20022;-72
2023/05/01 01:18:04;;;;;;;4.93;2.47;;;;;;;;;;5032117;28;20018;-71
2023/05/01 01:20:31;;;;;;;4.15;2.38;;;;;;;;;;5031085;28;20455;-71
2023/05/01 01:23:05;;;;;;;10.43;2.40;;;;;;;;;;5031429;28;20096;-71
2023/05/01 01:25:49;;;;;;;6.13;2.95;;;;;;;;;;5030754;28;20029;-72
2023/05/01 01:28:33;;;;;;;3.22;1.80;;;;;;;;;;5028242;28;20022;-71
2023/05/01 01:31:24;;;;;;;3.40;1.98;;;;;;;;;;5029987;28;20113;-72
2023/05/01 01:34:03;;;;;;;8.40;2.13;;;;;;;;;;5028820;28;20499;-72
2023/05/01 01:36:46;;;;;;;5.15;2.28;;;;;;;;;;5028914;28;20036;-72
2023/05/01 01:39:27;;;;;;;4.65;2.22;;;;;;;;;;5029484;28;20486;-72
2023/05/01 01:41:53;;;;;;;9.13;1.92;;;;;;;;;;5028727;28;20101;-71
2023/05/01 01:44:24;;;;;;;5.28;1.95;;;;;;;;;;5029661;28;20105;-71
2023/05/01 01:46:51;;;;;;;6.68;2.40;;;;;;;;;;5031754;28;20494;-71
2023/05/01 01:49:22;;;;;;;3.30;2.00;;;;;;;;;;5030453;28;20028;-71
2023/05/01 01:51:47;;;;;;;;;;;;;;;;;;5033977;28;20035;-72
2023/05/01 01:54:14;;;;;;;5.00;2.05;;;;;;;;;;5030162;28;19917;-72
2023/05/01 01:56:40;;;;;;;6.70;2.00;;;;;;;;;;5030281;28;20017;-71
2023/05/01 01:59:06;;;;;;;5.32;2.25;;;;;;;;;;5029945;28;20104;-72
2023/05/01 02:01:33;;;;;;;7.63;2.17;;;;;;;;;;5031332;28;20096;-71
2023/05/01 02:03:58;;;;;;;5.57;2.30;;;;;;;;;;5033115;28;20033;-71
2023/05/01 02:06:24;;;;;;;6.97;2.25;;;;;;;;;;5030867;28;20079;-71
2023/05/01 02:08:50;;;;;;;4.25;2.40;;;;;;;;;;5029756;28;20108;-71
2023/05/01 02:11:17;;;;;;;6.15;1.83;;;;;;;;;;5026209;28;20030;-72
2023/05/01 02:13:43;;;;;;;8.30;3.08;;;;;;;;;;5030913;28;20332;-71
2023/05/01 02:16:09;;;;;;;5.07;2.38;;;;;;;;;;5030335;28;20471;-72
2023/05/01 02:18:35;;;;;;;5.55;2.17;;;;;;;;;;5032974;28;20017;-71
2023/05/01 02:21:02;;;;;;;8.55;2.58;;;;;;;;;;5030041;28;20029;-72
2023/05/01 02:23:27;;;;;;;4.50;2.40;;;;;;;;;;5030163;28;20013;-71
2023/05/01 02:25:53;;;;;;;3.35;2.22;;;;;;;;;;5029238;28;20029;-71
2023/05/01 02:28:21;;;;;;;8.48;2.58;;;;;;;;;;5030132;28;20021;-72
2023/05/01 02:30:46;;;;;;;6.53;2.78;;;;;;;;;;5030116;28;20028;-72
2023/05/01 02:33:12;;;;;;;8.60;2.40;;;;;;;;;;5031586;28;20030;-72
2023/05/01 02:35:38;;;;;;;3.85;2.10;;;;;;;;;;5029970;28;20021;-71
2023/05/01 02:38:03;;;;;;;9.15;2.03;;;;;;;;;;5029684;28;20032;-72
2023/05/01 02:40:30;;;;;;;3.53;2.08;;;;;;;;;;5027389;28;20017;-72
2023/05/01 02:42:56;;;;;;;7.55;2.40;;;;;;;;;;5030294;28;20052;-71
2023/05/01 02:45:22;;;;;;;5.97;2.78;;;;;;;;;;5029288;28;20644;-71
2023/05/01 02:47:50;;;;;;;5.30;2.25;;;;;;;;;;5031343;28;20021;-71
2023/05/01 02:50:15;;;;;;;6.03;2.60;;;;;;;;;;5029048;28;20033;-71
2023/05/01 02:52:41;;;;;;;5.18;2.17;;;;;;;;;;5030441;28;20025;-71
2023/05/01 02:55:08;;;;;;;4.10;2.20;;;;;;;;;;5028485;28;20136;-72
2023/05/01 02:57:33;;;;;;;5.55;2.50;;;;;;;;;;5030061;28;20124;-72
2023/05/01 02:59:58;;;;;;;6.43;2.08;;;;;;;;;;5030197;28;20118;-71
2023/05/01 03:02:23;;;;;;;4.50;2.30;;;;;;;;;;5029835;28;20796;-71
2023/05/01 03:04:48;;;;;;;4.67;2.40;;;;;;;;;;5029658;28;20280;-71
2023/05/01 03:07:14;;;;;;;4.93;2.00;;;;;;;;;;5029303;28;20264;-71
2023/05/01 03:09:39;;;;;;;5.68;2.25;;;;;;;;;;5028753;28;20025;-72
2023/05/01 03:12:04;;;;;;;5.03;2.25;;;;;;;;;;5029510;28;20021;-72
2023/05/01 03:14:29;;;;;;;6.15;2.35;;;;;;;;;;5029307;28;20021;-72
2023/05/01 03:16:55;;;;;;;6.80;2.80;;;;;;;;;;5032137;28;20021;-72
2023/05/01 03:19:20;;;;;;;8.82;2.60;;;;;;;;;;5030003;28;20252;-71
2023/05/01 03:21:45;;;;;;;4.10;2.33;;;;;;;;;;5029792;28;20013;-72
2023/05/01 03:24:11;;;;;;;6.07;3.10;;;;;;;;;;5029052;28;20538;-72
2023/05/01 03:26:36;;;;;;;4.78;2.58;;;;;;;;;;5031259;28;20256;-72
2023/05/01 03:29:01;;;;;;;7.60;2.33;;;;;;;;;;5034973;28;20032;-71
2023/05/01 03:31:27;;;;;;;5.47;2.30;;;;;;;;;;5034385;28;20132;-71
2023/05/01 03:33:52;;;;;;;5.65;2.15;;;;;;;;;;5033110;28;20025;-71
2023/05/01 03:36:17;;;;;;;4.60;2.30;;;;;;;;;;5033140;28;20018;-71
2023/05/01 03:38:42;;;;;;;4.95;2.13;;;;;;;;;;5032179;28;20010;-71
2023/05/01 03:41:08;;;;;;;4.87;2.47;;;;;;;;;;5033692;28;20051;-71
2023/05/01 03:43:33;;;;;;;4.18;2.15;;;;;;;;;;5031732;28;20284;-71
2023/05/01 03:45:58;;;;;;;5.88;2.47;;;;;;;;;;5033695;28;20021;-71
2023/05/01 03:48:24;;;;;;;8.43;2.35;;;;;;;;;;5032935;28;20025;-72
2023/05/01 03:50:50;;;;;;;6.22;2.88;;;;;;;;;;5033573;28;20067;-72
2023/05/01 03:53:15;;;;;;;6.32;2.50;;;;;;;;;;5032234;28;20041;-71
2023/05/01 03:55:41;;;;;;;4.68;2.45;;;;;;;;;;5033590;28;20544;-71
2023/05/01 03:58:06;;;;;;;9.38;2.65;;;;;;;;;;5034498;28;20028;-72
2023/05/01 04:00:31;;;;;;;6.65;3.20;;;;;;;;;;5033425;28;20040;-71
2023/05/01 04:02:57;;;;;;;4.80;2.53;;;;;;;;;;5032926;28;20069;-71
2023/05/01 04:05:22;;;;;;;7.22;2.35;;;;;;;;;;5033246;28;20025;-72
2023/05/01 04:07:47;;;;;;;9.87;2.60;;;;;;;;;;5032000;28;20037;-71
2023/05/01 04:10:12;;;;;;;4.05;2.63;;;;;;;;;;5033355;28;20260;-71
2023/05/01 04:12:37;;;;;;;5.30;2.50;;;;;;;;;;5033648;28;20033;-71
2023/05/01 04:15:03;;;;;;;8.77;2.42;;;;;;;;;;5033437;28;20800;-71
2023/05/01 04:17:28;;;;;;;7.10;2.97;;;;;;;;;;5032413;28;20545;-71
2023/05/01 04:19:54;;;;;;;7.80;3.05;;;;;;;;;;5033614;28;20022;-71
2023/05/01 04:22:20;;;;;;;4.53;2.80;;;;;;;;;;5029917;28;20028;-71
2023/05/01 04:24:45;;;;;;;4.65;2.60;;;;;;;;;;5033020;28;20021;-71
2023/05/01 04:27:10;;;;;;;3.72;2.45;;;;;;;;;;5032247;28;20017;-71
2023/05/01 04:29:35;;;;;;;2.97;1.93;;;;;;;;;;5032845;28;20018;-71
2023/05/01 04:32:01;;;;;;;6.50;2.70;;;;;;;;;;5032077;28;20692;-71
2023/05/01 04:34:28;;;;;;;6.88;2.70;;;;;;;;;;5032373;28;20294;-71
2023/05/01 04:36:53;;;;;;;5.43;2.63;;;;;;;;;;5031195;28;20405;-71
2023/05/01 04:39:18;;;;;;;9.50;3.03;;;;;;;;;;5031599;28;20025;-72
2023/05/01 04:41:43;;;;;;;6.03;2.75;;;;;;;;;;5031004;28;20014;-71
2023/05/01 04:44:09;;;;;;;3.85;2.45;;;;;;;;;;5032573;28;20055;-72
2023/05/01 04:46:34;;;;;;;3.60;2.20;;;;;;;;;;5031987;28;20064;-72
2023/05/01 04:48:59;;;;;;;7.38;2.30;;;;;;;;;;5031870;28;20131;-71
2023/05/01 04:51:24;;;;;;;4.83;2.40;;;;;;;;;;5029365;28;20025;-71
2023/05/01 04:53:49;;;;;;;5.73;2.57;;;;;;;;;;5032477;28;20404;-71
2023/05/01 04:56:14;;;;;;;6.10;2.47;;;;;;;;;;5032858;28;20283;-71
2023/05/01 04:58:41;;;;;;;4.87;2.67;;;;;;;;;;5034220;28;20272;-71
2023/05/01 05:01:06;;;;;;;5.78;2.40;;;;;;;;;;5032236;28;20283;-71
2023/05/01 05:03:31;;;;;;;7.93;2.80;;;;;;;;;;5031142;28;20467;-72
2023/05/01 05:05:56;;;;;;;5.68;2.97;;;;;;;;;;5031325;28;20283;-71
2023/05/01 05:08:21;;;;;;;4.57;2.17;;;;;;;;;;5031195;28;20025;-71
2023/05/01 05:10:46;;;;;;;5.50;2.47;;;;;;;;;;5032515;28;20280;-71
2023/05/01 05:13:12;;;;;;;6.10;2.33;;;;;;;;;;5031162;28;20335;-72
2023/05/01 05:15:37;;;;;;;5.10;2.45;;;;;;;;;;5032296;28;20276;-71
2023/05/01 05:18:02;;;;;;;4.53;2.67;;;;;;;;;;5031416;28;20021;-72
2023/05/01 05:20:28;;;;;;;6.22;2.13;;;;;;;;;;5030664;28;20848;-71
2023/05/01 05:22:53;;;;;;;6.60;2.70;;;;;;;;;;5031457;28;20017;-72
2023/05/01 05:25:18;;;;;;;7.28;2.45;;;;;;;;;;5035816;28;20284;-71
2023/05/01 05:27:43;;;;;;;5.60;2.58;;;;;;;;;;5031043;28;20120;-71
2023/05/01 05:30:09;;;;;;;9.30;3.57;;;;;;;;;;5030650;28;20478;-72
2023/05/01 05:32:34;;;;;;;5.18;2.63;;;;;;;;;;5032035;28;20355;-71
2023/05/01 05:34:59;;;;;;;3.93;2.37;;;;;;;;;;5030917;28;20029;-72
2023/05/01 05:37:24;;;;;;;6.22;2.85;;;;;;;;;;5030450;28;20306;-71
2023/05/01 05:39:50;;;;;;;8.98;2.58;;;;;;;;;;5030823;28;20029;-71
2023/05/01 05:42:15;;;;;;;6.10;2.30;;;;;;;;;;5031046;28;20077;-71
2023/05/01 05:44:40;;;;;;;5.93;2.73;;;;;;;;;;5030723;28;20067;-71
2023/05/01 05:47:06;;;;;;;6.00;2.20;;;;;;;;;;5031664;28;20812;-71
2023/05/01 05:49:31;;;;;;;8.93;3.17;;;;;;;;;;5030045;28;20782;-71
2023/05/01 05:51:56;;;;;;;8.88;2.17;;;;;;;;;;5030159;28;20394;-71
2023/05/01 05:54:21;;;;;;;4.20;1.93;;;;;;;;;;5031702;28;20025;-71
2023/05/01 05:56:46;;;;;;;4.33;2.10;;;;;;;;;;5028305;28;20278;-71
2023/05/01 05:59:11;;;;;;;10.33;2.20;;;;;;;;;;5031096;28;20260;-71
2023/05/01 06:01:37;;;;;;;7.07;2.57;;;;;;;;;;5030754;28;20351;-71
2023/05/01 06:04:03;;;;;;;9.63;2.45;;;;;;;;;;5031106;28;20256;-72
2023/05/01 06:06:28;;;;;;;7.43;2.13;;;;;;;;;;5031514;28;20520;-71
2023/05/01 06:08:53;;;;;;;2.87;1.90;;;;;;;;;;5031373;28;20021;-71
2023/05/01 06:11:20;;;;;;;5.87;2.20;;;;;;;;;;5030375;28;20283;-71
2023/05/01 06:13:45;;;;;;;6.25;2.08;;;;;;;;;;5030124;28;20286;-71
2023/05/01 06:16:10;;;;;;;4.20;2.10;;;;;;;;;;5031224;28;20104;-71
2023/05/01 06:18:36;;;;;;;5.60;1.90;;;;;;;;;;5029477;28;20268;-71
2023/05/01 06:21:01;;;;;;;3.70;2.08;;;;;;;;;;5030118;28;20148;-71
2023/05/01 06:23:27;;;;;;;4.20;1.88;;;;;;;;;;5028945;28;20033;-71
2023/05/01 06:25:52;;;;;;;10.68;2.40;;;;;;;;;;5030656;28;20096;-71
2023/05/01 06:28:17;;;;;;;2.43;1.40;;;;;;;;;;5029764;28;20021;-71
2023/05/01 06:30:42;;;;;;;2.83;1.80;;;;;;;;;;5030753;28;20258;-71
2023/05/01 06:33:09;;;;;;;5.97;2.07;;;;;;;;;;5029949;28;20275;-71
2023/05/01 06:35:34;;;;;;;4.25;1.98;;;;;;;;;;5030648;28;21816;-71
2023/05/01 06:37:59;;;;;;;8.93;2.17;;;;;;;;;;5029148;28;20057;-71
2023/05/01 06:40:24;;;;;;;7.40;1.92;;;;;;;;;;5029832;28;21475;-71
2023/05/01 06:42:49;;;;;;;4.40;2.10;;;;;;;;;;5028722;28;20027;-71
2023/05/01 06:45:15;;;;;;;3.83;1.87;;;;;;;;;;5029493;28;20256;-71
2023/05/01 06:47:40;;;;;;;8.37;2.83;;;;;;;;;;5030043;28;20337;-71
2023/05/01 06:50:06;;;;;;;5.70;2.30;;;;;;;;;;5030370;28;20260;-71
2023/05/01 06:52:31;;;;;;;5.07;2.10;;;;;;;;;;5033538;28;20025;-71
2023/05/01 06:54:56;;;;;;;8.98;2.42;;;;;;;;;;5027786;28;20087;-71
2023/05/01 06:57:22;;;;;;;7.27;1.83;;;;;;;;;;5028708;28;20541;-71
2023/05/01 06:59:47;;;;;;;6.05;2.00;;;;;;;;;;5030524;28;20254;-71
2023/05/01 07:02:12;;;;;;;6.53;1.95;;;;;;;;;;5027241;28;20096;-71
2023/05/01 07:04:38;;;;;;;12.18;2.40;;;;;;;;;;5031977;28;20026;-71
2023/05/01 07:07:03;;;;;;;2.73;1.40;;;;;;;;;;5030512;28;20020;-71
2023/05/01 07:09:28;;;;;;;7.05;1.48;;;;;;;;;;5024069;28;20276;-71
2023/05/01 07:11:55;;;;;;;5.70;2.03;;;;;;;;;;5035150;28;20426;-71
2023/05/01 07:14:21;;;;;;;3.30;1.30;;;;;;;;;;5026603;28;20276;-71
2023/05/01 07:16:46;;;;;;;2.93;1.10;;;;;;;;;;5024724;28;20040;-71
2023/05/01 07:19:12;;;;;;;5.27;1.87;;;;;;;;;;5028848;28;20745;-71
2023/05/01 07:21:37;;;;;;;3.28;1.63;;;;;;;;;;5034315;28;20283;-71
2023/05/01 07:24:02;;;;;;;7.53;2.60;;;;;;;;;;5029875;28;20022;-71
2023/05/01 07:26:28;;;;;;;8.05;1.48;;;;;;;;;;5029308;28;20429;-71
2023/05/01 07:28:53;;;;;;;2.57;1.50;;;;;;;;;;5028319;28;20025;-71
2023/05/01 07:31:18;;;;;;;3.47;1.47;;;;;;;;;;5027681;28;20272;-71
2023/05/01 07:33:43;;;;;;;5.07;2.00;;;;;;;;;;5029824;28;20760;-71
2023/05/01 07:36:08;;;;;;;5.28;1.63;;;;;;;;;;5030951;28;20009;-71
2023/05/01 07:38:34;;;;;;;2.47;1.20;;;;;;;;;;5028142;28;20055;-71
2023/05/01 07:40:59;;;;;;;3.90;2.07;;;;;;;;;;5029818;28;20264;-71
2023/05/01 07:43:24;;;;;;;9.05;1.38;;;;;;;;;;5027902;28;20264;-71
2023/05/01 07:45:57;;;;;;;4.13;1.88;;;;;;;;;;5029359;28;20013;-71
2023/05/01 07:48:22;;;;;;;4.13;1.73;;;;;;;;;;5028734;28;20021;-71
2023/05/01 07:50:47;;;;;;;4.65;1.85;;;;;;;;;;5029929;28;20040;-71
2023/05/01 07:53:12;;;;;;;2.30;1.40;;;;;;;;;;5030594;28;20048;-71
2023/05/01 07:55:38;;;;;;;2.60;1.65;;;;;;;;;;5029726;28;20284;-71
2023/05/01 07:58:03;;;;;;;4.30;1.90;;;;;;;;;;5029040;28;20025;-71
2023/05/01 08:00:28;;;;;;;3.20;1.33;;;;;;;;;;5031259;28;20048;-71
2023/05/01 08:02:53;;;;;;;7.57;1.63;;;;;;;;;;5028582;28;20271;-71
2023/05/01 08:05:18;;;;;;;2.25;1.65;;;;;;;;;;5028271;28;20026;-71
2023/05/01 08:07:44;;;;;;;4.33;1.50;;;;;;;;;;5027617;28;20017;-71
2023/05/01 08:10:09;;;;;;;1.77;1.10;;;;;;;;;;5029647;28;20292;-71
2023/05/01 08:12:34;;;;;;;6.68;1.58;;;;;;;;;;5029465;28;21185;-71
2023/05/01 08:15:00;;;;;;;5.93;1.65;;;;;;;;;;5038349;28;20625;-71
2023/05/01 08:17:25;;;;;;;1.27;0.73;;;;;;;;;;5037228;28;20017;-71
2023/05/01 08:19:52;;;;;;;3.63;1.70;;;;;;;;;;5031948;28;20026;-71
2023/05/01 08:22:17;;;;;;;3.70;1.20;;;;;;;;;;5032435;28;20385;-71
2023/05/01 08:24:42;;;;;;;5.07;1.80;;;;;;;;;;5033150;28;20013;-71
2023/05/01 08:27:08;;;;;;;4.20;1.67;;;;;;;;;;5033299;28;20263;-71
2023/05/01 08:29:33;;;;;;;4.28;1.40;;;;;;;;;;5037866;28;20533;-71
2023/05/01 08:31:58;;;;;;;4.57;1.88;;;;;;;;;;5033097;28;20437;-71
2023/05/01 08:34:23;;;;;;;1.87;0.97;;;;;;;;;;5030946;28;20060;-71
2023/05/01 08:36:49;;;;;;;5.53;1.53;;;;;;;;;;5033039;28;20279;-71
2023/05/01 08:39:14;;;;;;;2.72;1.33;;;;;;;;;;5031173;28;20359;-71
2023/05/01 08:41:39;;;;;;;6.63;2.08;;;;;;;;;;5030710;28;20358;-71
2023/05/01 08:44:07;;;;;;;4.28;2.00;;;;;;;;;;5039246;28;20134;-71
2023/05/01 08:46:36;;;;;;;2.13;1.38;;;;;;;;;;5032630;28;20049;-71
2023/05/01 08:49:04;;;;;;;5.82;2.10;;;;;;;;;;5032262;28;20426;-71
2023/05/01 08:51:30;;;;;;;2.67;1.08;;;;;;;;;;5032204;28;20053;-71
2023/05/01 08:53:57;;;;;;;2.45;0.55;;;;;;;;;;5030426;28;20032;-71
2023/05/01 08:56:22;;;;;;;5.35;1.90;;;;;;;;;;5035251;28;20035;-71
2023/05/01 08:58:48;;;;;;;3.78;1.38;;;;;;;;;;5036952;28;20017;-71
2023/05/01 09:01:14;;;;;;;8.30;3.42;;;;;;;;;;5030948;28;20087;-71
2023/05/01 09:03:39;;;;;;;4.78;1.63;;;;;;;;;;5031574;28;20021;-71
2023/05/01 09:06:05;;;;;;;3.90;1.60;;;;;;;;;;5032338;28;20022;-71
2023/05/01 09:08:30;;;;;;;3.40;1.83;;;;;;;;;;5030720;28;20502;-71
2023/05/01 09:10:56;;;;;;;3.20;1.83;;;;;;;;;;5026711;28;20021;-71
2023/05/01 09:13:21;;;;;;;3.50;1.65;;;;;;;;;;5027927;28;20013;-71
2023/05/01 09:15:47;;;;;;;5.63;2.13;;;;;;;;;;5027095;28;20060;-71
2023/05/01 09:18:12;;;;;;;6.23;2.10;;;;;;;;;;5028497;28;20272;-71
2023/05/01 09:20:37;;;;;;;6.43;2.03;;;;;;;;;;5032739;28;20296;-70
2023/05/01 09:23:02;;;;;;;3.13;1.55;;;;;;;;;;5031756;28;20801;-70
2023/05/01 09:25:28;;;;;;;5.93;1.10;;;;;;;;;;5030643;28;20030;-70
2023/05/01 09:27:53;;;;;;;3.38;1.42;;;;;;;;;;5032070;28;20028;-70
2023/05/01 09:30:35;;;;;;;4.47;2.40;;;;;;;;;;5031473;28;20163;-70
2023/05/01 09:33:18;;;;;;;4.90;1.60;;;;;;;;;;5026579;28;20022;-70
2023/05/01 09:35:49;;;;;;;3.42;1.67;;;;;;;;;;5022710;28;20029;-70
2023/05/01 09:38:18;;;;;;;3.25;1.70;;;;;;;;;;5031050;28;20105;-70
2023/05/01 09:40:43;;;;;;;1.80;1.58;;;;;;;;;;5031084;28;20021;-70
2023/05/01 09:43:09;;;;;;;4.78;2.20;;;;;;;;;;5029627;28;20083;-71
2023/05/01 09:45:35;;;;;;;2.97;1.70;;;;;;;;;;5031305;28;20033;-71
2023/05/01 09:48:10;;;;;;;5.32;2.17;;;;;;;;;;5031063;28;20017;-71
2023/05/01 09:50:35;;;;;;;3.35;1.63;;;;;;;;;;5031344;28;20040;-71
2023/05/01 09:53:01;;;;;;;8.65;2.72;;;;;;;;;;5031500;28;20029;-71
2023/05/01 09:55:26;;;;;;;4.63;1.75;;;;;;;;;;5028225;28;20033;-71
2023/05/01 09:57:52;;;;;;;5.33;1.20;;;;;;;;;;5031151;28;20013;-71
2023/05/01 10:00:19;;;;;;;3.20;1.75;;;;;;;;;;5028680;28;20279;-71
2023/05/01 10:02:45;;;;;;;4.18;1.73;;;;;;;;;;5028357;28;20458;-71
2023/05/01 10:05:11;;;;;;;3.17;1.83;;;;;;;;;;5030082;28;20059;-71
2023/05/01 10:07:37;;;;;;;7.45;2.20;;;;;;;;;;5030666;28;20029;-71
2023/05/01 10:10:18;;;;;;;2.50;1.60;;;;;;;;;;5031336;28;20017;-71
2023/05/01 10:12:43;;;;;;;8.73;1.85;;;;;;;;;;5031155;28;20051;-70
2023/05/01 10:15:09;;;;;;;4.47;1.98;;;;;;;;;;5031147;28;20025;-70
2023/05/01 10:17:35;;;;;;;4.00;2.03;;;;;;;;;;5030021;28;20082;-71
2023/05/01 10:20:00;;;;;;;3.97;1.73;;;;;;;;;;5031175;28;20010;-70
2023/05/01 10:22:25;;;;;;;3.22;1.80;;;;;;;;;;5031050;28;20013;-70
2023/05/01 10:24:51;;;;;;;3.92;1.95;;;;;;;;;;5031154;28;20029;-71
2023/05/01 10:27:17;;;;;;;3.17;1.52;;;;;;;;;;5034756;28;20025;-71
2023/05/01 10:29:45;;;;;;;6.13;2.53;;;;;;;;;;5022109;28;20512;-71
2023/05/01 10:32:10;;;;;;;7.45;2.38;;;;;;;;;;5031462;28;20088;-71
2023/05/01 10:34:38;;;;;;;7.03;1.83;;;;;;;;;;5028586;28;20467;-71
2023/05/01 10:37:07;;;;;;;2.88;1.40;;;;;;;;;;5029914;28;20371;-70
2023/05/01 10:39:34;;;;;;;3.50;1.63;;;;;;;;;;5029198;28;20017;-70
2023/05/01 10:42:00;;;;;;;6.80;2.05;;;;;;;;;;5031338;28;20036;-71
2023/05/01 10:44:26;;;;;;;4.97;1.90;;;;;;;;;;5029471;28;20026;-71
2023/05/01 10:46:52;;;;;;;4.22;1.80;;;;;;;;;;5027025;28;20017;-70
2023/05/01 10:49:18;;;;;;;3.40;1.50;;;;;;;;;;5027145;28;20068;-70
2023/05/01 10:51:56;;;;;;;5.38;1.70;;;;;;;;;;5026091;28;20029;-70
2023/05/01 10:54:22;;;;;;;3.95;1.60;;;;;;;;;;5028244;28;20018;-70
2023/05/01 10:56:47;;;;;;;3.47;1.88;;;;;;;;;;5030159;28;20232;-70
2023/05/01 10:59:12;;;;;;;6.55;1.48;;;;;;;;;;5032030;28;20395;-70
2023/05/01 11:01:39;;;;;;;3.55;1.60;;;;;;;;;;5030749;28;20021;-71
2023/05/01 11:04:20;;;;;;;4.85;1.10;;;;;;;;;;5035144;28;20033;-70
2023/05/01 11:07:09;;;;;;;3.22;1.50;;;;;;;;;;5029593;28;20022;-70
2023/05/01 11:09:37;;;;;;;3.00;1.60;;;;;;;;;;5025512;28;20041;-71
2023/05/01 11:12:03;;;;;;;5.45;1.63;;;;;;;;;;5032935;28;20092;-71
2023/05/01 11:14:48;;;;;;;2.42;1.27;;;;;;;;;;5029252;28;20112;-71
2023/05/01 11:17:33;;;;;;;3.85;1.35;;;;;;;;;;5029674;28;20115;-71
2023/05/01 11:19:58;;;;;;;3.10;1.10;;;;;;;;;;5029188;28;20079;-71
2023/05/01 11:22:24;;;;;;;2.67;1.23;;;;;;;;;;5028088;28;20503;-71
2023/05/01 11:24:49;;;;;;;2.30;1.30;;;;;;;;;;5028679;28;20025;-71
2023/05/01 11:27:15;;;;;;;2.70;1.10;;;;;;;;;;5028449;28;20739;-71
2023/05/01 11:29:42;;;;;;;2.20;1.23;;;;;;;;;;5023980;28;20792;-70
2023/05/01 11:32:08;;;;;;;2.38;1.30;;;;;;;;;;5027964;28;20026;-70
2023/05/01 11:34:36;;;;;;;1.95;1.13;;;;;;;;;;5028504;28;20052;-70
2023/05/01 11:37:02;;;;;;;2.30;1.15;;;;;;;;;;5026454;28;20017;-70
2023/05/01 11:39:27;;;;;;;4.28;1.20;;;;;;;;;;5026474;28;20021;-70
2023/05/01 11:42:05;;;;;;;6.95;1.45;;;;;;;;;;5026308;28;20028;-70
2023/05/01 11:44:30;;;;;;;5.63;1.40;;;;;;;;;;5027321;28;20017;-70
2023/05/01 11:46:56;;;;;;;5.23;1.40;;;;;;;;;;5034096;28;20690;-70
2023/05/01 11:49:27;;;;;;;3.63;1.05;;;;;;;;;;5034461;28;20024;-70
2023/05/01 11:51:56;;;;;;;2.30;1.00;;;;;;;;;;5030054;28;20036;-70
2023/05/01 11:54:21;;;;;;;2.07;1.00;;;;;;;;;;5034323;28;20037;-70
2023/05/01 11:56:56;;;;;;;5.70;1.30;;;;;;;;;;5032768;28;20017;-70
2023/05/01 11:59:21;;;;;;;3.78;1.25;;;;;;;;;;5030106;28;20111;-70
2023/05/01 12:01:46;;;;;;;3.45;1.52;;;;;;;;;;5031732;28;20729;-70
2023/05/01 12:04:12;;;;;;;4.60;1.90;;;;;;;;;;5031122;28;20393;-70
2023/05/01 12:06:43;;;;;;;5.22;1.83;;;;;;;;;;5032750;28;20028;-70
2023/05/01 12:09:09;;;;;;;4.97;1.30;;;;;;;;;;5040704;28;20152;-70
2023/05/01 12:11:35;;;;;;;6.45;1.48;;;;;;;;;;5025748;28;20112;-70
2023/05/01 12:14:00;;;;;;;6.13;1.35;;;;;;;;;;5029612;28;20625;-70
2023/05/01 12:16:27;;;;;;;2.92;1.25;;;;;;;;;;5030001;28;20029;-70
2023/05/01 12:18:53;;;;;;;2.20;1.00;;;;;;;;;;5030070;28;20482;-70
2023/05/01 12:21:18;;;;;;;2.50;1.30;;;;;;;;;;5030881;28;20029;-70
2023/05/01 12:23:44;;;;;;;2.72;1.20;;;;;;;;;;5032535;28;20014;-70
2023/05/01 12:26:19;;;;;;;4.88;1.48;;;;;;;;;;5032355;28;20025;-70
2023/05/01 12:28:54;;;;;;;2.35;1.23;;;;;;;;;;5031522;28;20025;-71
2023/05/01 12:31:19;;;;;;;3.58;1.33;;;;;;;;;;5031517;28;20104;-71
2023/05/01 12:33:51;;;;;;;3.85;1.25;;;;;;;;;;5031314;28;20104;-71
2023/05/01 12:36:17;;;;;;;3.92;1.42;;;;;;;;;;5032733;28;20029;-71
2023/05/01 12:38:54;;;;;;;3.70;1.50;;;;;;;;;;5029578;28;20083;-71
2023/05/01 12:41:20;;;;;;;3.30;1.33;;;;;;;;;;5032159;28;20025;-71
2023/05/01 12:43:45;;;;;;;2.63;0.95;;;;;;;;;;5031454;28;20633;-71
2023/05/01 12:46:13;;;;;;;1.23;0.85;;;;;;;;;;5031856;28;20025;-72
2023/05/01 12:48:38;;;;;;;2.08;1.13;;;;;;;;;;5033547;28;20025;-72
2023/05/01 12:51:05;;;;;;;2.53;1.15;;;;;;;;;;5030203;28;20029;-72
2023/05/01 12:53:30;;;;;;;0.98;0.70;;;;;;;;;;5030374;28;20041;-72
2023/05/01 12:55:56;;;;;;;7.50;1.00;;;;;;;;;;5025776;28;20099;-71
2023/05/01 12:58:22;;;;;;;1.75;0.80;;;;;;;;;;5030023;28;20312;-71
2023/05/01 13:00:49;;;;;;;2.72;1.25;;;;;;;;;;5028346;28;20021;-70
2023/05/01 13:03:17;;;;;;;3.25;1.08;;;;;;;;;;5030189;28;20022;-72
2023/05/01 13:05:49;;;;;;;2.33;1.00;;;;;;;;;;5033192;28;20027;-70
2023/05/01 13:08:14;;;;;;;2.90;0.85;;;;;;;;;;5030391;28;20048;-70
2023/05/01 13:10:40;;;;;;;2.45;0.80;;;;;;;;;;5029395;28;20602;-70
2023/05/01 13:13:06;;;;;;;2.03;0.82;;;;;;;;;;5027668;28;20501;-70
2023/05/01 13:15:31;;;;;;;2.88;1.02;;;;;;;;;;5036729;28;20024;-69
2023/05/01 13:18:02;;;;;;;4.25;0.90;;;;;;;;;;5028741;28;20045;-70
2023/05/01 13:20:27;;;;;;;1.15;0.63;;;;;;;;;;5028184;28;20271;-70
2023/05/01 13:22:52;;;;;;;4.53;0.80;;;;;;;;;;5029369;28;20364;-70
2023/05/01 13:25:21;;;;;;;3.13;1.10;;;;;;;;;;5030584;28;20025;-69
2023/05/01 13:27:52;;;;;;;1.77;0.77;;;;;;;;;;5027154;28;20025;-69
2023/05/01 13:30:20;;;;;;;1.50;0.60;;;;;;;;;;5030605;28;20025;-70
2023/05/01 13:32:46;;;;;;;1.15;0.60;;;;;;;;;;5025474;28;20021;-70
2023/05/01 13:35:20;;;;;;;1.40;0.73;;;;;;;;;;5027716;28;20344;-70
2023/05/01 13:37:45;;;;;;;1.67;1.05;;;;;;;;;;5027086;28;20037;-70
2023/05/01 13:40:11;;;;;;;3.30;0.77;;;;;;;;;;5028658;28;20086;-70
2023/05/01 13:42:37;;;;;;;1.42;0.60;;;;;;;;;;5027884;28;20021;-71
2023/05/01 13:45:05;;;;;;;1.85;0.63;;;;;;;;;;5033521;28;20429;-71
2023/05/01 13:47:30;;;;;;;2.22;1.05;;;;;;;;;;5027153;28;20386;-71
2023/05/01 13:49:56;;;;;;;1.53;0.60;;;;;;;;;;5022385;28;20033;-71
2023/05/01 13:52:21;;;;;;;1.42;0.80;;;;;;;;;;5030965;28;20276;-72
2023/05/01 13:54:47;;;;;;;3.47;0.73;;;;;;;;;;5026662;28;20029;-71
2023/05/01 13:57:13;;;;;;;2.03;0.73;;;;;;;;;;5032509;28;20021;-71
2023/05/01 13:59:39;;;;;;;1.35;0.75;;;;;;;;;;5025695;28;20026;-71
2023/05/01 14:02:25;;;;;;;2.10;1.20;;;;;;;;;;5029003;28;20155;-71
2023/05/01 14:04:51;;;;;;;3.38;0.98;;;;;;;;;;5027314;28;20025;-71
2023/05/01 14:07:17;;;;;;;4.22;1.25;;;;;;;;;;5029144;28;20391;-72
2023/05/01 14:09:43;;;;;;;1.80;1.00;;;;;;;;;;5025707;28;20021;-72
2023/05/01 14:12:08;;;;;;;1.30;0.80;;;;;;;;;;5030251;28;20033;-72
2023/05/01 14:14:34;;;;;;;2.03;1.10;;;;;;;;;;5026481;28;20033;-72
2023/05/01 14:16:59;;;;;;;2.58;1.35;;;;;;;;;;5027745;28;20030;-72
2023/05/01 14:19:26;;;;;;;2.60;1.23;;;;;;;;;;5023047;28;20120;-72
2023/05/01 14:21:51;;;;;;;1.77;1.08;;;;;;;;;;5025699;28;20812;-72
2023/05/01 14:24:17;;;;;;;3.45;1.25;;;;;;;;;;5030698;28;20039;-72
2023/05/01 14:26:42;;;;;;;3.25;1.70;;;;;;;;;;5026564;28;20100;-72
2023/05/01 14:29:14;;;;;;;3.00;1.70;;;;;;;;;;5027865;28;20478;-72
2023/05/01 14:31:39;;;;;;;5.70;2.00;;;;;;;;;;5026548;28;20036;-72
2023/05/01 14:34:05;;;;;;;5.53;2.20;;;;;;;;;;5028337;28;20033;-71
2023/05/01 14:36:31;;;;;;;5.93;1.98;;;;;;;;;;5029380;28;20333;-72
2023/05/01 14:39:00;;;;;;;2.67;1.75;;;;;;;;;;5023611;28;20021;-72
2023/05/01 14:41:26;;;;;;;7.03;2.30;;;;;;;;;;5025722;28;20024;-72